Marina — SXJE — position and weather

sailwx.info

Track history (hours):
 
Tides and Currents Weather Stations Pressure Air Temp Water Temp Dewpoint Dewpoint Depression Visibility Wind Speed Wind Dir Waves Ship Positions

Marina

Last reported at 2014-Oct-31 09:33 UTC. Time now 2014-Oct-31 10:51 UTC.
Position N 36°13' W 026°29'.

Length 225 m; draft 8.7 m.

Type: Cargo ship. MMSI: 239651000.

Date/timePositionNaut miles runAvg speedWind from/ knotsBaromVisibWave heightAir tempDewpointWater temp
2014-Oct-31 09:33N 36°13' W 026°29'1111.4
2014-Oct-31 08:33N 36°12' W 026°14'1111.0
2014-Oct-31 07:33N 36°13' W 026°01'1111.2
2014-Oct-31 06:33N 36°12' W 025°47'1111.2
2014-Oct-31 05:33N 36°12' W 025°33'1211.6
2014-Oct-31 04:33N 36°12' W 025°19'1211.5
2014-Oct-31 03:33N 36°12' W 025°04'1211.5
2014-Oct-31 02:33N 36°11' W 024°50'1211.9
2014-Oct-31 01:33N 36°11' W 024°35'1212.1
2014-Oct-31 00:34N 36°11' W 024°20'1212.1
2014-Oct-30 23:33N 36°11' W 024°05'1212.2
2014-Oct-30 22:33N 36°10' W 023°50'1311.8
2014-Oct-30 21:28N 36°11' W 023°34'  
2014-Oct-28 17:23N 36°01' W 010°44'1412.3
2014-Oct-28 16:14N 36°00' W 010°26'2512.7
2014-Oct-28 14:17N 36°02' W 009°56'911.9
2014-Oct-28 13:33N 36°01' W 009°45'2512.3
2014-Oct-28 11:29N 35°59' W 009°13'1310.6
2014-Oct-28 10:15N 35°59' W 008°57'913.1
2014-Oct-28 09:33N 35°59' W 008°46'1313.0
2014-Oct-28 08:33N 35°59' W 008°30'1613.1
2014-Oct-28 07:20N 35°58' W 008°10'1013.2
2014-Oct-28 06:33N 35°58' W 007°57'1313.3
2014-Oct-28 05:33N 35°58' W 007°41'1413.1
2014-Oct-28 04:29N 35°58' W 007°24'1213.3
2014-Oct-28 03:33N 35°58' W 007°08'1313.1
2014-Oct-28 02:33N 35°58' W 006°52'1313.2
2014-Oct-28 01:33N 35°57' W 006°36'1313.3
2014-Oct-28 00:33N 35°57' W 006°19'1413.6
2014-Oct-27 23:33N 35°57' W 006°03'1813.6
2014-Oct-27 22:13N 35°58' W 005°40'811.6
2014-Oct-27 21:33N 35°59' W 005°31'1212.2
2014-Oct-27 20:33N 36°02' W 005°16'21312.5
2014-Oct-27 03:33N 37°12' W 001°06'1414.3
2014-Oct-27 02:33N 37°21' W 000°52'1414.0
2014-Oct-27 01:33N 37°30' W 000°39'1413.8
2014-Oct-27 00:33N 37°41' W 000°28'1413.9
2014-Oct-26 23:33N 37°53' W 000°18'1414.2
2014-Oct-26 22:33N 38°04' W 000°08'1414.0
2014-Oct-26 21:33N 38°16' E 000°01'1413.5
2014-Oct-26 20:32N 38°28' E 000°11'1514.0
2014-Oct-26 19:27N 38°40' E 000°22'1313.7
2014-Oct-26 18:28N 38°52' E 000°30'1413.5
2014-Oct-26 17:27N 39°04' E 000°38'1413.5
2014-Oct-26 16:24N 39°17' E 000°46'1113.6
2014-Oct-26 15:33N 39°27' E 000°54'1413.9
2014-Oct-26 14:33N 39°39' E 001°02'1413.9
2014-Oct-26 13:33N 39°52' E 001°11'1413.9
2014-Oct-26 12:33N 40°04' E 001°19'1413.8
2014-Oct-26 11:33N 40°16' E 001°28'1413.4
2014-Oct-26 10:33N 40°28' E 001°36'1313.3
2014-Oct-26 09:33N 40°40' E 001°44'1413.6
2014-Oct-26 08:33N 40°52' E 001°53'1413.7
2014-Oct-26 07:33N 41°04' E 002°01'1313.2
2014-Oct-26 06:33N 41°15' E 002°10'5 0.7
2014-Oct-25 22:20N 41°21' E 002°09'0 0.0
2014-Oct-25 21:14N 41°21' E 002°09'0 0.0
2014-Oct-25 18:32N 41°21' E 002°09'  
Track history (hours):
 
Tides and Currents Weather Stations Pressure Air Temp Water Temp Dewpoint Dewpoint Depression Visibility Wind Speed Wind Dir Waves Ship Positions

Marina

Last reported at 2014-Oct-31 09:33 UTC. Time now 2014-Oct-31 10:51 UTC.
Position N 36°13' W 026°29'.

Length 225 m; draft 8.7 m.

Type: Cargo ship. MMSI: 239651000.

Date/timePositionNaut miles runAvg speedWind from/ knotsBaromVisibWave heightAir tempDewpointWater temp
2014-Oct-31 09:33N 36°13' W 026°29'1111.4
2014-Oct-31 08:33N 36°12' W 026°14'1111.0
2014-Oct-31 07:33N 36°13' W 026°01'1111.2
2014-Oct-31 06:33N 36°12' W 025°47'1111.2
2014-Oct-31 05:33N 36°12' W 025°33'1211.6
2014-Oct-31 04:33N 36°12' W 025°19'1211.5
2014-Oct-31 03:33N 36°12' W 025°04'1211.5
2014-Oct-31 02:33N 36°11' W 024°50'1211.9
2014-Oct-31 01:33N 36°11' W 024°35'1212.1
2014-Oct-31 00:34N 36°11' W 024°20'1212.1
2014-Oct-30 23:33N 36°11' W 024°05'1212.2
2014-Oct-30 22:33N 36°10' W 023°50'1311.8
2014-Oct-30 21:28N 36°11' W 023°34'  
2014-Oct-28 17:23N 36°01' W 010°44'1412.3
2014-Oct-28 16:14N 36°00' W 010°26'2512.7
2014-Oct-28 14:17N 36°02' W 009°56'911.9
2014-Oct-28 13:33N 36°01' W 009°45'2512.3
2014-Oct-28 11:29N 35°59' W 009°13'1310.6
2014-Oct-28 10:15N 35°59' W 008°57'913.1
2014-Oct-28 09:33N 35°59' W 008°46'1313.0
2014-Oct-28 08:33N 35°59' W 008°30'1613.1
2014-Oct-28 07:20N 35°58' W 008°10'1013.2
2014-Oct-28 06:33N 35°58' W 007°57'1313.3
2014-Oct-28 05:33N 35°58' W 007°41'1413.1
2014-Oct-28 04:29N 35°58' W 007°24'1213.3
2014-Oct-28 03:33N 35°58' W 007°08'1313.1
2014-Oct-28 02:33N 35°58' W 006°52'1313.2
2014-Oct-28 01:33N 35°57' W 006°36'1313.3
2014-Oct-28 00:33N 35°57' W 006°19'1413.6
2014-Oct-27 23:33N 35°57' W 006°03'1813.6
2014-Oct-27 22:13N 35°58' W 005°40'811.6
2014-Oct-27 21:33N 35°59' W 005°31'1212.2
2014-Oct-27 20:33N 36°02' W 005°16'21312.5
2014-Oct-27 03:33N 37°12' W 001°06'1414.3
2014-Oct-27 02:33N 37°21' W 000°52'1414.0
2014-Oct-27 01:33N 37°30' W 000°39'1413.8
2014-Oct-27 00:33N 37°41' W 000°28'1413.9
2014-Oct-26 23:33N 37°53' W 000°18'1414.2
2014-Oct-26 22:33N 38°04' W 000°08'1414.0
2014-Oct-26 21:33N 38°16' E 000°01'1413.5
2014-Oct-26 20:32N 38°28' E 000°11'1514.0
2014-Oct-26 19:27N 38°40' E 000°22'1313.7
2014-Oct-26 18:28N 38°52' E 000°30'1413.5
2014-Oct-26 17:27N 39°04' E 000°38'1413.5
2014-Oct-26 16:24N 39°17' E 000°46'1113.6
2014-Oct-26 15:33N 39°27' E 000°54'1413.9
2014-Oct-26 14:33N 39°39' E 001°02'1413.9
2014-Oct-26 13:33N 39°52' E 001°11'1413.9
2014-Oct-26 12:33N 40°04' E 001°19'1413.8
2014-Oct-26 11:33N 40°16' E 001°28'1413.4
2014-Oct-26 10:33N 40°28' E 001°36'1313.3
2014-Oct-26 09:33N 40°40' E 001°44'1413.6
2014-Oct-26 08:33N 40°52' E 001°53'1413.7
2014-Oct-26 07:33N 41°04' E 002°01'1313.2
2014-Oct-26 06:33N 41°15' E 002°10'5 0.7
2014-Oct-25 22:20N 41°21' E 002°09'0 0.0
2014-Oct-25 21:14N 41°21' E 002°09'0 0.0
2014-Oct-25 18:32N 41°21' E 002°09'  

Dump ship's entire track history